createdAt,value
2022-08-29T00:01:29.954Z,100426.63
2022-08-29T00:03:59.668Z,100429.66
2022-08-29T00:06:27.300Z,100426.09
2022-08-29T00:08:54.947Z,100428.91
2022-08-29T00:11:22.875Z,100427.75
2022-08-29T00:13:50.439Z,100426.50
2022-08-29T00:16:18.360Z,100428.09
2022-08-29T00:18:46.180Z,100431.72
2022-08-29T00:21:15.080Z,100428.66
2022-08-29T00:23:45.522Z,100431.72
2022-08-29T00:26:13.235Z,100431.63
2022-08-29T00:28:41.157Z,100429.38
2022-08-29T00:31:08.875Z,100429.91
2022-08-29T00:33:39.274Z,100433.69
2022-08-29T00:36:07.368Z,100428.94
2022-08-29T00:38:37.943Z,100435.56
2022-08-29T00:41:06.605Z,100432.72
2022-08-29T00:43:37.118Z,100431.06
2022-08-29T00:46:22.077Z,100431.41
2022-08-29T00:48:55.497Z,100428.72
2022-08-29T00:51:23.863Z,100426.78
2022-08-29T00:53:59.146Z,100440.59
2022-08-29T00:56:27.135Z,100441.28
2022-08-29T00:58:58.608Z,100440.25
2022-08-29T01:01:26.627Z,100438.38
2022-08-29T01:03:54.852Z,100443.19
2022-08-29T01:06:23.373Z,100444.22
2022-08-29T01:08:57.379Z,100438.41
2022-08-29T01:11:46.682Z,100438.31
2022-08-29T01:14:15.622Z,100442.56
2022-08-29T01:16:43.964Z,100442.06
2022-08-29T01:19:21.415Z,100442.34
2022-08-29T01:21:56.353Z,100445.53
2022-08-29T01:24:36.471Z,100441.25
2022-08-29T01:27:04.597Z,100440.66
2022-08-29T01:29:32.280Z,100440.09
2022-08-29T01:31:59.954Z,100442.81
2022-08-29T01:34:29.585Z,100438.22
2022-08-29T01:36:58.883Z,100442.91
2022-08-29T01:39:30.227Z,100439.66
2022-08-29T01:41:59.118Z,100444.03
2022-08-29T01:44:27.407Z,100459.22
2022-08-29T01:47:02.679Z,100446.88
2022-08-29T01:49:33.670Z,100454.13
2022-08-29T01:52:02.282Z,100459.31
2022-08-29T01:54:31.847Z,100459.81
2022-08-29T01:57:00.645Z,100468.16
2022-08-29T01:59:30.161Z,100469.28
2022-08-29T02:02:01.815Z,100469.81
2022-08-29T02:04:29.561Z,100466.56
2022-08-29T02:06:57.155Z,100460.56
2022-08-29T02:09:25.362Z,100469.50
2022-08-29T02:11:55.972Z,100463.91
2022-08-29T02:14:24.488Z,100473.19
2022-08-29T02:16:52.088Z,100469.09
2022-08-29T02:19:19.818Z,100474.13
2022-08-29T02:21:47.787Z,100470.16
2022-08-29T02:24:26.101Z,100475.00
2022-08-29T02:26:57.279Z,100471.81
2022-08-29T02:29:26.009Z,100476.28
2022-08-29T02:31:58.684Z,100480.69
2022-08-29T02:34:30.914Z,100468.19
2022-08-29T02:37:00.143Z,100473.59
2022-08-29T02:39:28.077Z,100482.44
2022-08-29T02:41:57.142Z,100476.72
2022-08-29T02:44:24.805Z,100477.66
2022-08-29T02:46:52.453Z,100482.03
2022-08-29T02:49:20.225Z,100479.53
2022-08-29T02:51:49.430Z,100478.13
2022-08-29T02:54:17.093Z,100467.75
2022-08-29T02:56:44.769Z,100472.97
2022-08-29T02:59:14.232Z,100474.84
2022-08-29T03:01:41.976Z,100472.22
2022-08-29T03:04:09.598Z,100477.81
2022-08-29T03:06:37.197Z,100494.28
2022-08-29T03:09:05.308Z,100485.41
2022-08-29T03:11:32.923Z,100484.56
2022-08-29T03:14:01.033Z,100488.84
2022-08-29T03:16:30.099Z,100481.75
2022-08-29T03:18:57.747Z,100477.19
2022-08-29T03:21:27.629Z,100480.88
2022-08-29T03:23:56.715Z,100481.81
2022-08-29T03:26:26.106Z,100486.16
2022-08-29T03:28:54.172Z,100486.38
2022-08-29T03:31:22.490Z,100481.88
2022-08-29T03:33:51.533Z,100489.97
2022-08-29T03:36:19.955Z,100487.28
2022-08-29T03:38:48.803Z,100489.97
2022-08-29T03:41:22.383Z,100492.25
2022-08-29T03:43:50.088Z,100496.22
2022-08-29T03:46:17.863Z,100491.00
2022-08-29T03:48:45.598Z,100490.41
2022-08-29T03:51:14.778Z,100489.13
2022-08-29T03:53:42.417Z,100494.38
2022-08-29T03:56:10.875Z,100491.50
2022-08-29T03:58:49.211Z,100490.06
2022-08-29T04:01:22.452Z,100485.91
2022-08-29T04:03:50.715Z,100497.00
2022-08-29T04:06:20.564Z,100486.22
2022-08-29T04:08:48.598Z,100495.97
2022-08-29T04:11:18.438Z,100479.78
2022-08-29T04:13:46.613Z,100486.47
2022-08-29T04:16:17.454Z,100489.00
2022-08-29T04:18:45.222Z,100490.19
2022-08-29T04:21:13.428Z,100495.22
2022-08-29T04:23:45.835Z,100501.47
2022-08-29T04:29:06.553Z,100502.09
2022-08-29T04:31:34.415Z,100514.13
2022-08-29T04:34:02.401Z,100504.19
2022-08-29T04:36:30.765Z,100510.00
2022-08-29T04:38:59.760Z,100512.03
2022-08-29T04:41:27.834Z,100516.22
2022-08-29T04:43:55.502Z,100509.56
2022-08-29T04:46:24.566Z,100508.94
2022-08-29T04:48:52.999Z,100512.88
2022-08-29T04:51:21.047Z,100513.69
2022-08-29T04:53:50.685Z,100516.63
2022-08-29T04:56:21.774Z,100515.56
2022-08-29T04:58:50.577Z,100508.06
2022-08-29T05:01:20.902Z,100515.28
2022-08-29T05:03:49.079Z,100519.44
2022-08-29T05:06:19.768Z,100522.69
2022-08-29T05:08:58.879Z,100531.84
2022-08-29T05:11:30.406Z,100533.94
2022-08-29T05:13:59.053Z,100541.78
2022-08-29T05:16:27.233Z,100549.19
2022-08-29T05:18:55.115Z,100548.97
2022-08-29T05:21:28.216Z,100551.19
2022-08-29T05:23:57.379Z,100547.84
2022-08-29T05:26:25.659Z,100546.34
2022-08-29T05:28:54.542Z,100546.94
2022-08-29T05:31:22.445Z,100539.50
2022-08-29T05:33:50.332Z,100553.72
2022-08-29T05:36:17.959Z,100564.00
2022-08-29T05:38:46.160Z,100553.06
2022-08-29T05:41:14.190Z,100551.84
2022-08-29T05:43:41.833Z,100552.38
2022-08-29T05:46:11.634Z,100540.94
2022-08-29T05:48:41.717Z,100544.78
2022-08-29T05:51:15.069Z,100550.47
2022-08-29T05:53:42.688Z,100547.94
2022-08-29T05:56:10.252Z,100552.59
2022-08-29T05:58:37.883Z,100546.94
2022-08-29T06:01:05.702Z,100545.41
2022-08-29T06:03:34.850Z,100553.47
2022-08-29T06:06:02.583Z,100556.59
2022-08-29T06:08:30.185Z,100553.56
2022-08-29T06:10:57.895Z,100549.16
2022-08-29T06:13:25.532Z,100540.81
2022-08-29T06:15:53.169Z,100547.34
2022-08-29T06:18:22.971Z,100542.22
2022-08-29T06:21:06.586Z,100537.78
2022-08-29T06:23:34.354Z,100525.28
2022-08-29T06:26:02.139Z,100522.97
2022-08-29T06:28:30.968Z,100530.03
2022-08-29T06:31:05.557Z,100532.63
2022-08-29T06:33:33.163Z,100528.84
2022-08-29T06:36:01.103Z,100529.13
2022-08-29T06:38:30.012Z,100529.38
2022-08-29T06:40:57.581Z,100516.22
2022-08-29T06:43:25.169Z,100524.81
2022-08-29T06:45:53.065Z,100523.53
2022-08-29T06:48:20.728Z,100520.34
2022-08-29T06:50:48.331Z,100527.75
2022-08-29T06:53:27.328Z,100510.75
2022-08-29T06:55:57.439Z,100521.44
2022-08-29T06:58:25.051Z,100520.06
2022-08-29T07:00:52.718Z,100520.91
2022-08-29T07:03:21.963Z,100525.00
2022-08-29T07:05:53.263Z,100518.66
2022-08-29T07:08:21.479Z,100517.88
2022-08-29T07:10:49.069Z,100526.31
2022-08-29T07:13:18.090Z,100524.56
2022-08-29T07:15:46.051Z,100518.88
2022-08-29T07:18:13.810Z,100516.63
2022-08-29T07:20:41.557Z,100527.63
2022-08-29T07:23:09.600Z,100523.97
2022-08-29T07:25:40.089Z,100521.50
2022-08-29T07:28:08.135Z,100515.34
2022-08-29T07:30:39.560Z,100523.06
2022-08-29T07:33:07.325Z,100524.47
2022-08-29T07:35:35.028Z,100536.56
2022-08-29T07:38:02.802Z,100518.66
2022-08-29T07:40:31.269Z,100510.00
2022-08-29T07:42:59.015Z,100510.75
2022-08-29T07:45:26.679Z,100513.75
2022-08-29T07:47:55.936Z,100525.41
2022-08-29T07:50:23.520Z,100517.88
2022-08-29T07:52:52.459Z,100518.81
2022-08-29T07:55:21.830Z,100522.56
2022-08-29T07:57:51.974Z,100524.75
2022-08-29T08:00:20.289Z,100515.38
2022-08-29T08:02:48.263Z,100523.59
2022-08-29T08:05:17.445Z,100516.97
2022-08-29T08:07:45.096Z,100518.03
2022-08-29T08:10:17.022Z,100524.91
2022-08-29T08:12:44.855Z,100504.97
2022-08-29T08:15:12.575Z,100502.38
2022-08-29T08:17:43.923Z,100518.31
2022-08-29T08:20:12.960Z,100516.75
2022-08-29T08:22:41.964Z,100514.91
2022-08-29T08:25:10.338Z,100523.06
2022-08-29T08:27:41.262Z,100524.72
2022-08-29T08:30:12.360Z,100533.22
2022-08-29T08:32:45.618Z,100526.97
2022-08-29T08:35:16.232Z,100529.38
2022-08-29T08:37:45.247Z,100532.88
2022-08-29T08:40:21.213Z,100531.81
2022-08-29T08:42:50.576Z,100525.53
2022-08-29T08:45:20.641Z,100518.69
2022-08-29T08:47:52.622Z,100525.25
2022-08-29T08:50:26.223Z,100519.78
2022-08-29T08:52:59.879Z,100530.66
2022-08-29T08:55:34.846Z,100522.19
2022-08-29T08:58:10.968Z,100527.44
2022-08-29T09:00:46.093Z,100532.13
2022-08-29T09:03:51.425Z,100534.84
2022-08-29T09:06:31.487Z,100523.84
2022-08-29T09:09:12.062Z,100526.94
2022-08-29T09:11:51.313Z,100522.53
2022-08-29T09:14:33.601Z,100529.09
2022-08-29T09:17:03.278Z,100524.44
2022-08-29T09:19:32.294Z,100524.50
2022-08-29T09:22:17.391Z,100525.78
2022-08-29T09:24:49.926Z,100527.41
2022-08-29T09:27:23.287Z,100523.31
2022-08-29T09:29:58.439Z,100521.44
2022-08-29T09:32:26.116Z,100514.03
2022-08-29T09:35:10.025Z,100521.22
2022-08-29T09:37:38.174Z,100522.22
2022-08-29T09:40:16.648Z,100510.94
2022-08-29T09:43:00.808Z,100518.38
2022-08-29T09:45:28.820Z,100518.66
2022-08-29T09:48:10.385Z,100516.69
2022-08-29T09:50:38.224Z,100514.16
2022-08-29T09:53:09.766Z,100518.56
2022-08-29T09:55:53.182Z,100509.22
2022-08-29T09:58:30.398Z,100519.47
2022-08-29T10:01:02.965Z,100517.31
2022-08-29T10:03:36.494Z,100512.94
2022-08-29T10:06:10.841Z,100517.28
2022-08-29T10:08:40.746Z,100515.66
2022-08-29T10:11:28.244Z,100526.34
2022-08-29T10:13:59.855Z,100519.25
2022-08-29T10:16:39.710Z,100509.38
2022-08-29T10:19:12.999Z,100507.75
2022-08-29T10:21:54.995Z,100504.19
2022-08-29T10:24:58.319Z,100503.34
2022-08-29T10:27:33.608Z,100500.34
2022-08-29T10:30:11.039Z,100496.19
2022-08-29T10:33:08.257Z,100498.09
2022-08-29T10:35:41.221Z,100498.88
2022-08-29T10:38:18.011Z,100488.81
2022-08-29T10:40:49.465Z,100497.88
2022-08-29T10:43:40.586Z,100490.19
2022-08-29T10:46:23.096Z,100487.19
2022-08-29T10:48:58.774Z,100483.34
2022-08-29T10:51:38.944Z,100483.91
2022-08-29T10:54:18.225Z,100477.06
2022-08-29T10:56:50.035Z,100473.75
2022-08-29T10:59:27.538Z,100473.22
2022-08-29T11:02:01.187Z,100483.28
2022-08-29T11:04:35.606Z,100479.19
2022-08-29T11:07:07.173Z,100472.09
2022-08-29T11:09:40.276Z,100464.38
2022-08-29T11:12:17.345Z,100471.16
2022-08-29T11:14:52.685Z,100472.09
2022-08-29T11:17:24.482Z,100468.56
2022-08-29T11:20:01.874Z,100454.28
2022-08-29T11:22:34.982Z,100452.91
2022-08-29T11:25:10.187Z,100454.84
2022-08-29T11:27:48.111Z,100450.56
2022-08-29T11:30:22.670Z,100458.44
2022-08-29T11:33:04.367Z,100454.53
2022-08-29T11:35:45.790Z,100449.41
2022-08-29T11:38:42.122Z,100440.19
2022-08-29T11:41:29.870Z,100438.69
2022-08-29T11:44:08.521Z,100443.50
2022-08-29T11:46:41.654Z,100443.06
2022-08-29T11:49:33.836Z,100436.44
2022-08-29T11:52:18.859Z,100431.38
2022-08-29T11:55:23.750Z,100432.94
2022-08-29T11:58:01.725Z,100435.63
2022-08-29T12:00:51.169Z,100414.41
2022-08-29T12:03:57.163Z,100415.53
2022-08-29T12:06:28.520Z,100413.72
2022-08-29T12:09:08.074Z,100402.19
2022-08-29T12:12:12.664Z,100413.72
2022-08-29T12:14:42.269Z,100405.84
2022-08-29T12:17:12.348Z,100401.81
2022-08-29T12:19:50.885Z,100394.50
2022-08-29T12:22:59.227Z,100392.63
2022-08-29T12:25:41.340Z,100390.03
2022-08-29T12:28:44.318Z,100393.16
2022-08-29T12:31:19.432Z,100387.59
2022-08-29T12:34:07.976Z,100393.44
2022-08-29T12:36:55.204Z,100386.66
2022-08-29T12:39:45.110Z,100382.75
2022-08-29T12:42:25.387Z,100389.47
2022-08-29T12:45:01.677Z,100394.88
2022-08-29T12:47:33.590Z,100393.75
2022-08-29T12:50:07.584Z,100386.16
2022-08-29T12:52:38.713Z,100384.72
2022-08-29T12:55:21.206Z,100380.56
2022-08-29T12:57:48.904Z,100368.09
2022-08-29T13:00:22.004Z,100369.72
2022-08-29T13:03:05.060Z,100372.50
2022-08-29T13:05:39.527Z,100369.06
2022-08-29T13:08:13.399Z,100356.13
2022-08-29T13:10:54.829Z,100348.13
2022-08-29T13:13:24.880Z,100349.44
2022-08-29T13:15:53.995Z,100357.00
2022-08-29T13:18:22.144Z,100348.25
2022-08-29T13:21:02.881Z,100339.72
2022-08-29T13:23:34.271Z,100335.22
2022-08-29T13:26:06.774Z,100332.28
2022-08-29T13:28:38.759Z,100338.47
2022-08-29T13:31:29.094Z,100345.31
2022-08-29T13:34:23.857Z,100338.91
2022-08-29T13:36:59.992Z,100340.75
2022-08-29T13:39:32.981Z,100343.28
2022-08-29T13:42:20.262Z,100338.03
2022-08-29T13:45:11.504Z,100330.97
2022-08-29T13:48:15.239Z,100335.28
2022-08-29T13:50:43.172Z,100342.03
2022-08-29T13:53:11.032Z,100340.31
2022-08-29T13:55:42.261Z,100344.09
2022-08-29T13:58:11.848Z,100333.69
2022-08-29T14:00:39.707Z,100323.78
2022-08-29T14:03:08.174Z,100324.28
2022-08-29T14:05:36.240Z,100314.06
2022-08-29T14:08:05.369Z,100322.47
2022-08-29T14:10:33.077Z,100316.59
2022-08-29T14:13:02.479Z,100320.91
2022-08-29T14:15:30.753Z,100326.34
2022-08-29T14:17:58.835Z,100308.72
2022-08-29T14:20:26.808Z,100305.25
2022-08-29T14:22:54.405Z,100313.25
2022-08-29T14:25:22.228Z,100310.34
2022-08-29T14:27:49.921Z,100308.03
2022-08-29T14:30:21.752Z,100315.84
2022-08-29T14:32:49.524Z,100312.81
2022-08-29T14:35:25.769Z,100309.56
2022-08-29T14:37:56.865Z,100305.00
2022-08-29T14:40:25.981Z,100307.53
2022-08-29T14:42:57.078Z,100298.09
2022-08-29T14:45:26.111Z,100299.34
2022-08-29T14:47:53.732Z,100299.50
2022-08-29T14:50:21.681Z,100292.50
2022-08-29T14:52:49.350Z,100296.91
2022-08-29T14:55:17.903Z,100306.06
2022-08-29T14:57:45.475Z,100295.94
2022-08-29T15:00:17.222Z,100296.47
2022-08-29T15:02:46.642Z,100296.97
2022-08-29T15:05:14.825Z,100302.50
2022-08-29T15:07:42.886Z,100292.38
2022-08-29T15:10:12.174Z,100291.91
2022-08-29T15:12:40.252Z,100294.66
2022-08-29T15:15:09.009Z,100281.03
2022-08-29T15:17:36.910Z,100280.63
2022-08-29T15:22:55.825Z,100278.09
2022-08-29T15:25:24.039Z,100279.56
2022-08-29T15:27:52.091Z,100275.59
2022-08-29T15:30:21.979Z,100268.66
2022-08-29T15:32:49.889Z,100272.09
2022-08-29T15:35:19.205Z,100275.81
2022-08-29T15:37:47.017Z,100268.50
2022-08-29T15:40:15.199Z,100269.38
2022-08-29T15:42:43.028Z,100267.81
2022-08-29T15:45:11.499Z,100273.69
2022-08-29T15:47:39.976Z,100263.47
2022-08-29T15:50:08.853Z,100281.28
2022-08-29T15:52:38.616Z,100273.66
2022-08-29T15:55:07.994Z,100276.88
2022-08-29T15:57:51.665Z,100261.16
2022-08-29T16:00:30.500Z,100262.06
2022-08-29T16:03:03.336Z,100272.09
2022-08-29T16:05:31.628Z,100262.47
2022-08-29T16:08:01.269Z,100262.03
2022-08-29T16:10:29.255Z,100259.97
2022-08-29T16:12:57.239Z,100254.44
2022-08-29T16:15:25.033Z,100257.22
2022-08-29T16:17:53.281Z,100260.66
2022-08-29T16:20:21.376Z,100270.50
2022-08-29T16:22:49.134Z,100266.88
2022-08-29T16:25:18.146Z,100260.34
2022-08-29T16:27:45.990Z,100255.94
2022-08-29T16:30:14.541Z,100252.69
2022-08-29T16:32:42.255Z,100249.84
2022-08-29T16:35:11.092Z,100246.38
2022-08-29T16:37:38.851Z,100249.00
2022-08-29T16:40:07.965Z,100245.31
2022-08-29T16:42:39.260Z,100249.41
2022-08-29T16:45:08.541Z,100248.44
2022-08-29T16:47:36.600Z,100246.66
2022-08-29T16:50:05.726Z,100249.50
2022-08-29T16:52:33.525Z,100247.53
2022-08-29T16:55:01.294Z,100245.66
2022-08-29T16:57:29.247Z,100247.09
2022-08-29T16:59:58.448Z,100250.03
2022-08-29T17:02:26.450Z,100244.88
2022-08-29T17:04:55.525Z,100237.69
2022-08-29T17:07:32.316Z,100243.47
2022-08-29T17:10:00.286Z,100245.56
2022-08-29T17:12:28.637Z,100245.34
2022-08-29T17:14:56.783Z,100236.28
2022-08-29T17:17:24.491Z,100247.19
2022-08-29T17:19:52.137Z,100242.09
2022-08-29T17:22:19.895Z,100241.88
2022-08-29T17:24:47.645Z,100234.81
2022-08-29T17:27:19.459Z,100240.88
2022-08-29T17:29:49.050Z,100237.91
2022-08-29T17:32:18.393Z,100243.63
2022-08-29T17:34:46.035Z,100238.28
2022-08-29T17:37:13.681Z,100239.38
2022-08-29T17:39:41.539Z,100242.41
2022-08-29T17:42:09.280Z,100242.78
2022-08-29T17:44:36.961Z,100240.41
2022-08-29T17:47:04.972Z,100241.28
2022-08-29T17:49:34.024Z,100243.78
2022-08-29T17:52:01.940Z,100241.03
2022-08-29T17:54:29.549Z,100245.19
2022-08-29T17:56:59.987Z,100254.78
2022-08-29T17:59:29.827Z,100250.69
2022-08-29T18:01:58.342Z,100251.31
2022-08-29T18:04:27.261Z,100246.63
2022-08-29T18:06:57.112Z,100246.97
2022-08-29T18:09:25.588Z,100253.59
2022-08-29T18:11:54.872Z,100245.63
2022-08-29T18:14:26.398Z,100251.94
2022-08-29T18:16:54.946Z,100253.31
2022-08-29T18:19:24.186Z,100250.03
2022-08-29T18:21:53.471Z,100254.69
2022-08-29T18:24:22.754Z,100257.16
2022-08-29T18:26:50.647Z,100259.34
2022-08-29T18:29:19.512Z,100266.16
2022-08-29T18:31:47.368Z,100265.34
2022-08-29T18:34:15.789Z,100267.53
2022-08-29T18:36:45.628Z,100260.13
2022-08-29T18:39:15.733Z,100263.16
2022-08-29T18:41:44.951Z,100260.69
2022-08-29T18:44:13.019Z,100264.81
2022-08-29T18:46:41.456Z,100267.75
2022-08-29T18:49:16.588Z,100275.66
2022-08-29T18:51:44.715Z,100268.56
2022-08-29T18:54:17.466Z,100274.03
2022-08-29T18:56:47.953Z,100280.56
2022-08-29T18:59:15.540Z,100283.28
2022-08-29T19:01:43.823Z,100286.25
2022-08-29T19:04:11.602Z,100283.47
2022-08-29T19:06:39.250Z,100284.31
2022-08-29T19:09:06.927Z,100282.34
2022-08-29T19:11:34.531Z,100288.34
2022-08-29T19:14:03.721Z,100288.84
2022-08-29T19:16:32.419Z,100294.50
2022-08-29T19:19:00.146Z,100303.25
2022-08-29T19:21:26.781Z,100302.78
2022-08-29T19:23:55.846Z,100315.84
2022-08-29T19:26:28.566Z,100307.16
2022-08-29T19:28:58.974Z,100313.09
2022-08-29T19:31:29.107Z,100312.75
2022-08-29T19:33:57.642Z,100313.22
2022-08-29T19:36:27.003Z,100311.84
2022-08-29T19:38:55.021Z,100319.22
2022-08-29T19:41:23.356Z,100309.66
2022-08-29T19:43:53.362Z,100315.38
2022-08-29T19:46:23.009Z,100322.22
2022-08-29T19:48:53.226Z,100317.31
2022-08-29T19:51:24.801Z,100318.41
2022-08-29T19:53:53.325Z,100321.13
2022-08-29T19:56:21.054Z,100318.88
2022-08-29T19:58:49.415Z,100323.78
2022-08-29T20:01:17.994Z,100322.88
2022-08-29T20:03:46.131Z,100319.31
2022-08-29T20:06:15.821Z,100320.88
2022-08-29T20:08:46.654Z,100320.28
2022-08-29T20:11:18.243Z,100319.47
2022-08-29T20:13:50.575Z,100328.25
2022-08-29T20:16:21.450Z,100323.69
2022-08-29T20:18:51.837Z,100326.16
2022-08-29T20:21:23.419Z,100327.41
2022-08-29T20:23:57.242Z,100322.16
2022-08-29T20:26:28.130Z,100330.34
2022-08-29T20:28:56.208Z,100333.59
2022-08-29T20:31:23.888Z,100335.34
2022-08-29T20:33:51.559Z,100324.59
2022-08-29T20:36:41.105Z,100326.84
2022-08-29T20:39:11.436Z,100324.59
2022-08-29T20:41:39.226Z,100331.78
2022-08-29T20:44:09.747Z,100334.47
2022-08-29T20:46:40.256Z,100343.41
2022-08-29T20:49:08.257Z,100346.63
2022-08-29T20:51:37.447Z,100344.66
2022-08-29T20:54:06.137Z,100356.13
2022-08-29T20:56:33.862Z,100346.91
2022-08-29T20:59:01.579Z,100353.88
2022-08-29T21:01:29.222Z,100349.31
2022-08-29T21:04:14.482Z,100346.91
2022-08-29T21:06:54.159Z,100353.44
2022-08-29T21:09:22.955Z,100360.63
2022-08-29T21:11:50.950Z,100358.09
2022-08-29T21:14:19.032Z,100361.84
2022-08-29T21:16:47.363Z,100366.06
2022-08-29T21:19:15.021Z,100360.63
2022-08-29T21:21:44.603Z,100374.94
2022-08-29T21:24:13.793Z,100365.81
2022-08-29T21:26:41.518Z,100369.81
2022-08-29T21:29:09.527Z,100374.84
2022-08-29T21:31:37.734Z,100378.44
2022-08-29T21:34:07.224Z,100375.56
2022-08-29T21:36:37.017Z,100375.88
2022-08-29T21:39:07.316Z,100377.03
2022-08-29T21:41:40.432Z,100373.34
2022-08-29T21:44:09.425Z,100381.38
2022-08-29T21:46:41.412Z,100377.66
2022-08-29T21:49:11.025Z,100369.88
2022-08-29T21:51:40.495Z,100375.66
2022-08-29T21:54:12.757Z,100373.09
2022-08-29T21:56:42.966Z,100366.38
2022-08-29T21:59:11.797Z,100378.72
2022-08-29T22:01:40.660Z,100372.69
2022-08-29T22:04:10.997Z,100383.03
2022-08-29T22:06:40.968Z,100382.59
2022-08-29T22:09:10.394Z,100383.44
2022-08-29T22:11:39.229Z,100392.00
2022-08-29T22:14:09.334Z,100390.19
2022-08-29T22:16:37.114Z,100393.00
2022-08-29T22:19:07.513Z,100393.31
2022-08-29T22:21:38.493Z,100401.69
2022-08-29T22:24:07.700Z,100394.34
2022-08-29T22:26:36.148Z,100396.31
2022-08-29T22:29:04.828Z,100398.91
2022-08-29T22:31:33.972Z,100402.81
2022-08-29T22:34:03.648Z,100398.38
2022-08-29T22:36:33.331Z,100404.34
2022-08-29T22:39:01.088Z,100406.59
2022-08-29T22:41:28.768Z,100405.03
2022-08-29T22:46:46.396Z,100407.69
2022-08-29T22:49:14.719Z,100413.97
2022-08-29T22:51:42.335Z,100415.41
2022-08-29T22:54:27.521Z,100419.19
2022-08-29T22:56:55.185Z,100419.75
2022-08-29T22:59:23.199Z,100424.03
2022-08-29T23:01:52.334Z,100424.13
2022-08-29T23:04:20.112Z,100416.09
2022-08-29T23:06:47.906Z,100419.06
2022-08-29T23:09:16.247Z,100419.66
2022-08-29T23:11:44.146Z,100416.25
2022-08-29T23:14:12.846Z,100412.94
2022-08-29T23:16:41.024Z,100410.47
2022-08-29T23:19:10.270Z,100410.72
2022-08-29T23:21:40.152Z,100412.13
2022-08-29T23:24:08.973Z,100408.81
2022-08-29T23:26:37.734Z,100420.88
2022-08-29T23:29:05.908Z,100419.56
2022-08-29T23:31:33.571Z,100416.13
2022-08-29T23:34:01.269Z,100415.78
2022-08-29T23:36:32.618Z,100420.03
2022-08-29T23:39:01.712Z,100421.31
2022-08-29T23:41:29.490Z,100424.50
2022-08-29T23:43:57.293Z,100423.78
2022-08-29T23:46:25.247Z,100424.03
2022-08-29T23:48:54.044Z,100427.81
2022-08-29T23:51:21.748Z,100422.97
2022-08-29T23:53:51.554Z,100423.78
2022-08-29T23:56:21.360Z,100416.13
2022-08-29T23:58:49.338Z,100417.31
